Time;durP1;ratioP1;P1;durP2;ratioP2;P2;SDS_P1;SDS_P2;PMS_P1;PMS_P2;Temp;Humidity;BMP_temperature;BMP_pressure;BME280_temperature;BME280_humidity;BME280_pressure;Samples;Min_cycle;Max_cycle;Signal;HPM_P1;HPM_P2
2024/04/04 00:01:14;;;;;;;2.38;0.90;;;12.00;89.90;;;;;;10230257;28;21397;-59
2024/04/04 00:06:16;;;;;;;3.30;1.00;;;12.00;90.00;;;;;;10230694;28;20217;-60
2024/04/04 00:11:21;;;;;;;5.00;1.08;;;12.00;90.30;;;;;;10228701;28;20311;-61
2024/04/04 00:16:24;;;;;;;6.00;1.38;;;12.00;90.50;;;;;;10229521;28;20206;-63
2024/04/04 00:21:26;;;;;;;3.38;1.00;;;12.00;90.60;;;;;;10229575;28;20602;-61
2024/04/04 00:26:30;;;;;;;5.85;1.20;;;12.00;90.20;;;;;;10230111;28;20248;-62
2024/04/04 00:31:33;;;;;;;3.92;1.05;;;11.90;90.30;;;;;;10231662;28;20221;-61
2024/04/04 00:36:36;;;;;;;6.10;1.30;;;11.90;90.10;;;;;;10228824;28;20275;-60
2024/04/04 00:41:40;;;;;;;4.47;0.90;;;11.90;90.40;;;;;;10227930;28;20288;-62
2024/04/04 00:46:43;;;;;;;4.75;1.13;;;11.90;90.80;;;;;;10231544;28;20217;-61
2024/04/04 00:51:46;;;;;;;3.17;0.90;;;11.80;90.40;;;;;;10232377;28;20241;-62
2024/04/04 00:56:50;;;;;;;3.25;0.93;;;11.80;90.60;;;;;;10228906;28;20287;-61
2024/04/04 01:01:52;;;;;;;3.22;1.10;;;11.80;90.60;;;;;;10229474;28;20229;-62
2024/04/04 01:06:55;;;;;;;6.25;1.05;;;11.80;90.70;;;;;;10229165;28;21213;-62
2024/04/04 01:11:59;;;;;;;4.70;1.13;;;11.80;90.90;;;;;;10229725;28;21459;-60
2024/04/04 01:17:02;;;;;;;5.15;1.23;;;11.80;90.80;;;;;;10228359;28;20231;-61
2024/04/04 01:22:04;;;;;;;2.83;1.10;;;11.80;90.90;;;;;;10229253;28;20866;-61
2024/04/04 01:27:09;;;;;;;6.93;1.00;;;11.80;91.00;;;;;;10229923;28;20845;-61
2024/04/04 01:32:11;;;;;;;4.47;1.27;;;11.80;90.90;;;;;;10230563;28;20260;-61
2024/04/04 01:37:14;;;;;;;4.90;1.38;;;11.90;90.70;;;;;;10236578;28;20287;-60
2024/04/04 01:42:18;;;;;;;4.65;1.05;;;11.90;90.90;;;;;;10236552;28;20225;-62
2024/04/04 01:47:21;;;;;;;4.18;1.20;;;11.90;91.30;;;;;;10236369;28;20209;-61
2024/04/04 01:52:23;;;;;;;3.03;1.13;;;12.00;91.20;;;;;;10232740;28;20256;-63
2024/04/04 01:57:27;;;;;;;3.53;1.63;;;12.00;91.50;;;;;;10234118;28;20205;-60
2024/04/04 02:02:30;;;;;;;6.05;1.63;;;12.00;90.90;;;;;;10233615;28;20229;-61
2024/04/04 02:07:34;;;;;;;8.80;1.40;;;12.10;91.10;;;;;;10233526;28;20209;-61
2024/04/04 02:12:38;;;;;;;2.78;0.90;;;12.10;91.20;;;;;;10233015;28;20240;-62
2024/04/04 02:17:40;;;;;;;4.93;1.30;;;12.10;91.00;;;;;;10234532;28;20244;-60
2024/04/04 02:22:43;;;;;;;4.10;1.02;;;12.10;91.00;;;;;;10235751;28;20308;-62
2024/04/04 02:27:47;;;;;;;5.70;1.20;;;12.20;91.20;;;;;;10233113;28;20264;-61
2024/04/04 02:32:49;;;;;;;5.93;1.33;;;12.20;90.80;;;;;;10232735;28;20458;-61
2024/04/04 02:37:52;;;;;;;4.47;1.38;;;12.20;91.10;;;;;;10233334;28;21543;-61
2024/04/04 02:42:56;;;;;;;3.53;1.10;;;12.20;91.00;;;;;;10232691;28;20234;-61
2024/04/04 02:47:58;;;;;;;4.47;1.30;;;12.20;91.00;;;;;;10231061;28;20213;-61
2024/04/04 02:53:01;;;;;;;4.05;1.30;;;12.30;90.90;;;;;;10233587;28;20237;-62
2024/04/04 02:58:05;;;;;;;3.72;1.58;;;12.30;91.00;;;;;;10231303;28;21904;-61
2024/04/04 03:03:09;;;;;;;4.53;1.10;;;12.30;91.40;;;;;;10230968;28;22092;-61
2024/04/04 03:08:12;;;;;;;3.55;1.33;;;12.30;91.40;;;;;;10233050;28;20206;-62
2024/04/04 03:13:16;;;;;;;2.75;0.95;;;12.30;91.20;;;;;;10276316;22;21738;-64
2024/04/04 03:18:19;;;;;;;2.65;1.10;;;12.40;91.30;;;;;;10261954;28;20217;-65
2024/04/04 03:23:22;;;;;;;3.17;1.33;;;12.40;91.50;;;;;;10262778;28;21805;-64
2024/04/04 03:28:25;;;;;;;4.45;1.35;;;12.40;91.80;;;;;;10261779;28;20213;-64
2024/04/04 03:33:28;;;;;;;3.10;0.93;;;12.40;92.00;;;;;;10261384;28;20228;-65
2024/04/04 03:38:31;;;;;;;4.97;1.15;;;12.40;91.90;;;;;;10262277;28;20262;-64
2024/04/04 03:43:35;;;;;;;3.80;1.25;;;12.40;92.20;;;;;;10260910;28;20228;-65
2024/04/04 03:48:38;;;;;;;1.95;0.90;;;12.40;92.50;;;;;;10261679;28;20225;-65
2024/04/04 03:53:41;;;;;;;3.47;1.52;;;12.30;92.60;;;;;;10264671;28;21610;-63
2024/04/04 03:58:45;;;;;;;5.75;1.27;;;12.30;92.80;;;;;;10264781;28;20511;-63
2024/04/04 04:03:47;;;;;;;4.80;1.15;;;12.30;93.10;;;;;;10262294;28;20298;-64
2024/04/04 04:08:50;;;;;;;2.35;1.20;;;12.30;93.40;;;;;;10262816;28;20217;-64
2024/04/04 04:13:53;;;;;;;3.95;1.10;;;12.30;93.60;;;;;;10263377;28;20233;-64
2024/04/04 04:18:56;;;;;;;2.67;1.20;;;12.20;93.60;;;;;;10264833;28;20212;-64
2024/04/04 04:24:00;;;;;;;3.25;1.60;;;12.30;93.90;;;;;;10265773;28;20259;-64
2024/04/04 04:29:04;;;;;;;2.35;1.38;;;12.20;93.90;;;;;;10263511;28;20270;-64
2024/04/04 04:34:07;;;;;;;2.72;1.42;;;12.20;94.50;;;;;;10264566;28;20718;-64
2024/04/04 04:39:10;;;;;;;3.05;1.70;;;12.20;94.20;;;;;;10262853;28;20279;-65
2024/04/04 04:44:14;;;;;;;2.65;1.33;;;12.20;94.90;;;;;;10264625;28;20251;-65
2024/04/04 04:49:17;;;;;;;3.55;1.67;;;12.20;94.90;;;;;;10264814;28;20363;-65
2024/04/04 04:54:20;;;;;;;4.53;2.00;;;12.20;94.80;;;;;;10263579;28;20561;-65
2024/04/04 04:59:24;;;;;;;3.85;1.60;;;12.30;95.00;;;;;;10260668;28;20653;-65
2024/04/04 05:04:26;;;;;;;5.20;2.33;;;12.30;95.60;;;;;;10261787;28;20225;-64
2024/04/04 05:09:29;;;;;;;4.78;2.00;;;12.30;95.50;;;;;;10270993;28;21509;-65
2024/04/04 05:14:33;;;;;;;2.83;1.15;;;12.30;95.40;;;;;;10270763;28;20302;-65
2024/04/04 05:19:35;;;;;;;4.78;1.77;;;12.40;95.60;;;;;;10271317;28;20627;-65
2024/04/04 05:24:38;;;;;;;2.53;1.98;;;12.40;95.50;;;;;;10271359;28;20937;-64
2024/04/04 05:29:43;;;;;;;3.08;1.80;;;12.40;96.20;;;;;;10270491;28;20266;-64
2024/04/04 05:34:47;;;;;;;4.37;1.73;;;12.50;95.70;;;;;;10269361;28;20532;-67
2024/04/04 05:39:50;;;;;;;2.45;1.15;;;12.60;96.90;;;;;;10269109;28;20463;-67
2024/04/04 05:44:54;;;;;;;3.67;1.15;;;12.70;96.20;;;;;;10275175;28;20233;-66
2024/04/04 05:49:56;;;;;;;4.28;1.98;;;12.70;96.10;;;;;;10276838;28;20758;-67
2024/04/04 05:55:01;;;;;;;4.78;2.08;;;12.70;96.20;;;;;;10269657;28;21439;-68
2024/04/04 06:00:08;;;;;;;3.85;1.90;;;12.70;96.20;;;;;;10270317;28;20331;-66
2024/04/04 06:05:10;;;;;;;3.75;1.88;;;12.70;96.60;;;;;;10273544;28;20233;-65
2024/04/04 06:10:13;;;;;;;11.63;6.90;;;12.70;96.50;;;;;;10270323;28;20212;-66
2024/04/04 06:15:17;;;;;;;9.82;6.20;;;12.70;96.60;;;;;;10269198;28;20310;-66
2024/04/04 06:20:19;;;;;;;17.30;12.38;;;12.80;97.30;;;;;;10267669;28;20275;-66
2024/04/04 06:25:22;;;;;;;13.15;11.77;;;12.80;97.00;;;;;;10272126;28;20304;-67
2024/04/04 06:30:26;;;;;;;17.30;13.75;;;12.80;97.70;;;;;;10273337;28;20267;-65
2024/04/04 06:35:28;;;;;;;8.73;3.97;;;12.80;97.20;;;;;;10273801;28;20241;-65
2024/04/04 06:40:32;;;;;;;6.30;1.90;;;12.80;97.10;;;;;;10271665;28;20234;-67
2024/04/04 06:45:36;;;;;;;8.65;3.53;;;12.80;97.10;;;;;;10270923;28;20282;-67
2024/04/04 06:50:38;;;;;;;6.90;3.65;;;12.80;97.40;;;;;;10267493;28;20221;-66
2024/04/04 06:55:41;;;;;;;8.00;2.15;;;12.90;97.60;;;;;;10267703;28;20934;-68
2024/04/04 07:00:55;;;;;;;6.15;2.63;;;12.90;97.30;;;;;;10266988;28;20271;-67
2024/04/04 07:05:58;;;;;;;5.97;2.65;;;12.90;97.90;;;;;;10271089;28;20233;-68
2024/04/04 07:11:00;;;;;;;6.10;1.48;;;12.90;98.30;;;;;;10272753;28;20239;-67
2024/04/04 07:16:07;;;;;;;4.53;2.42;;;13.00;97.60;;;;;;10271480;28;20248;-66
2024/04/04 07:21:10;;;;;;;3.90;1.60;;;13.00;97.60;;;;;;10271681;28;20242;-66
2024/04/04 07:26:12;;;;;;;6.45;1.90;;;13.10;98.10;;;;;;10270282;28;20236;-66
2024/04/04 07:31:16;;;;;;;6.20;3.03;;;13.10;98.10;;;;;;10268562;28;20220;-66
2024/04/04 07:36:19;;;;;;;5.70;1.77;;;13.20;97.90;;;;;;10266756;28;20312;-67
2024/04/04 07:41:21;;;;;;;6.68;2.45;;;13.20;97.80;;;;;;10267489;28;20208;-67
2024/04/04 07:46:25;;;;;;;4.55;2.42;;;13.30;98.00;;;;;;10269514;28;20290;-67
2024/04/04 07:51:28;;;;;;;3.60;1.77;;;13.30;98.30;;;;;;10272860;28;20251;-67
2024/04/04 07:56:31;;;;;;;4.25;1.98;;;13.30;98.70;;;;;;10266838;28;20884;-68
2024/04/04 08:01:35;;;;;;;3.95;1.20;;;13.20;99.20;;;;;;10255931;28;20213;-68
2024/04/04 08:06:39;;;;;;;13.38;6.18;;;13.20;99.30;;;;;;10269221;28;20405;-67
2024/04/04 08:11:41;;;;;;;4.60;2.40;;;13.10;99.00;;;;;;10259444;28;20236;-66
2024/04/04 08:16:45;;;;;;;12.82;4.78;;;13.10;99.90;;;;;;10252395;28;20770;-68
2024/04/04 08:21:48;;;;;;;15.82;5.40;;;13.00;99.90;;;;;;10253375;28;20839;-69
2024/04/04 08:26:50;;;;;;;3.40;1.05;;;13.00;99.90;;;;;;10253189;28;20240;-70
2024/04/04 08:31:54;;;;;;;14.85;5.22;;;12.90;99.90;;;;;;10253540;28;20287;-67
2024/04/04 08:36:57;;;;;;;15.70;5.70;;;12.90;99.90;;;;;;10251542;28;20213;-68
2024/04/04 08:42:00;;;;;;;16.02;7.13;;;12.90;99.90;;;;;;10248161;28;20225;-67
2024/04/04 08:47:06;;;;;;;13.40;4.78;;;12.90;99.90;;;;;;10250850;28;20652;-68
2024/04/04 08:52:09;;;;;;;9.05;3.90;;;12.90;99.90;;;;;;10251089;28;20795;-67
2024/04/04 08:57:12;;;;;;;4.80;1.73;;;12.90;99.90;;;;;;10250282;28;20212;-67
2024/04/04 09:02:16;;;;;;;1.75;1.00;;;13.00;99.90;;;;;;10250627;28;20236;-67
2024/04/04 09:07:18;;;;;;;11.10;2.53;;;13.00;99.90;;;;;;10251545;28;20212;-69
2024/04/04 09:12:21;;;;;;;12.15;4.10;;;13.10;99.90;;;;;;10271944;22;20248;-64
2024/04/04 09:17:26;;;;;;;1.45;1.02;;;13.10;99.90;;;;;;10358589;28;20255;-64
2024/04/04 09:22:29;;;;;;;6.03;2.35;;;13.30;99.90;;;;;;10351199;28;20232;-63
2024/04/04 09:27:34;;;;;;;2.10;1.10;;;13.40;99.90;;;;;;10352099;28;20209;-64
2024/04/04 09:32:39;;;;;;;0.98;0.40;;;13.60;99.90;;;;;;10351694;28;20229;-64
2024/04/04 09:37:41;;;;;;;4.43;1.58;;;13.60;99.90;;;;;;10362111;28;20208;-64
2024/04/04 09:42:46;;;;;;;2.30;0.68;;;13.70;99.90;;;;;;10354329;28;20666;-63
2024/04/04 09:47:51;;;;;;;2.50;0.70;;;13.80;99.90;;;;;;10352196;28;20209;-63
2024/04/04 09:52:53;;;;;;;5.57;1.35;;;13.70;99.90;;;;;;10353015;28;20221;-63
2024/04/04 09:57:56;;;;;;;1.23;0.60;;;13.70;99.90;;;;;;10358406;28;20447;-64
2024/04/04 10:03:00;;;;;;;4.22;1.40;;;13.80;99.90;;;;;;10356952;28;20598;-63
2024/04/04 10:08:11;;;;;;;1.73;0.73;;;13.90;99.90;;;;;;10357261;28;20664;-64
2024/04/04 10:13:13;;;;;;;1.92;0.68;;;14.00;99.90;;;;;;10356718;28;20225;-63
2024/04/04 10:18:18;;;;;;;0.95;0.57;;;14.10;99.90;;;;;;10357159;28;20742;-63
2024/04/04 10:23:24;;;;;;;1.35;0.77;;;14.10;99.90;;;;;;10356747;28;20217;-62
2024/04/04 10:28:26;;;;;;;0.90;0.45;;;14.20;99.90;;;;;;10356303;28;20255;-63
2024/04/04 10:33:30;;;;;;;1.48;0.98;;;14.10;99.90;;;;;;10357897;28;20700;-62
2024/04/04 10:38:34;;;;;;;2.33;0.88;;;14.10;99.90;;;;;;10357027;28;20197;-62
2024/04/04 10:43:40;;;;;;;1.42;0.57;;;14.20;99.90;;;;;;10355835;28;20736;-63
2024/04/04 10:48:44;;;;;;;1.33;0.88;;;14.20;99.60;;;;;;10355697;28;20248;-64
2024/04/04 10:53:47;;;;;;;5.65;1.55;;;14.30;99.50;;;;;;10355946;28;20599;-64
2024/04/04 10:58:49;;;;;;;3.28;0.93;;;14.40;99.60;;;;;;10354945;28;20197;-63
2024/04/04 11:03:55;;;;;;;3.17;0.82;;;14.50;99.20;;;;;;10354577;28;20248;-62
2024/04/04 11:09:04;;;;;;;4.03;1.10;;;14.60;98.50;;;;;;10354848;28;20201;-63
2024/04/04 11:14:06;;;;;;;4.30;0.80;;;14.70;98.20;;;;;;10354400;28;20224;-62
2024/04/04 11:19:12;;;;;;;1.75;1.00;;;14.70;97.30;;;;;;10354115;28;20201;-62
2024/04/04 11:24:14;;;;;;;3.08;1.00;;;14.70;97.10;;;;;;10354383;28;20271;-63
2024/04/04 11:29:17;;;;;;;3.42;1.10;;;14.80;97.30;;;;;;10353599;28;20231;-63
2024/04/04 11:34:21;;;;;;;4.55;1.08;;;14.80;96.40;;;;;;10353579;28;20280;-63
2024/04/04 11:39:24;;;;;;;4.63;1.40;;;14.90;96.10;;;;;;10353256;28;20619;-62
2024/04/04 11:44:26;;;;;;;3.85;0.80;;;14.90;96.00;;;;;;10351482;28;20221;-63
2024/04/04 11:49:30;;;;;;;2.72;0.88;;;14.90;96.00;;;;;;10346258;28;20228;-61
2024/04/04 11:54:33;;;;;;;3.40;0.80;;;14.90;96.30;;;;;;10343808;28;20883;-60
2024/04/04 11:59:36;;;;;;;1.48;0.60;;;15.00;95.70;;;;;;10330906;28;20303;-60
2024/04/04 12:04:43;;;;;;;3.40;0.60;;;15.00;95.60;;;;;;10318836;28;21107;-60
2024/04/04 12:09:45;;;;;;;2.72;1.00;;;15.10;95.30;;;;;;10315158;28;20205;-60
2024/04/04 12:14:56;;;;;;;3.95;0.80;;;15.10;95.00;;;;;;10314181;28;21597;-61
2024/04/04 12:20:00;;;;;;;3.30;1.00;;;15.10;94.50;;;;;;10312977;28;20229;-61
2024/04/04 12:25:03;;;;;;;2.88;0.90;;;15.10;94.90;;;;;;10312735;28;20233;-61
2024/04/04 12:30:08;;;;;;;1.77;0.80;;;15.10;94.60;;;;;;10312021;28;20220;-60
2024/04/04 12:35:12;;;;;;;3.20;0.70;;;15.30;94.10;;;;;;10318982;28;20232;-61
2024/04/04 12:40:15;;;;;;;2.00;0.60;;;15.40;94.10;;;;;;10320110;28;20636;-61
2024/04/04 12:45:18;;;;;;;2.50;0.88;;;15.40;93.50;;;;;;10318633;28;20229;-62
2024/04/04 12:50:24;;;;;;;1.17;0.60;;;15.40;93.20;;;;;;10313995;28;20274;-61
2024/04/04 12:55:26;;;;;;;2.35;0.65;;;15.40;92.30;;;;;;10314216;28;20233;-61
2024/04/04 13:00:29;;;;;;;5.10;1.10;;;15.40;92.80;;;;;;10312585;28;20930;-61
2024/04/04 13:05:33;;;;;;;2.30;0.80;;;15.40;92.00;;;;;;10315449;28;21622;-61
2024/04/04 13:10:36;;;;;;;4.82;1.40;;;15.80;92.60;;;;;;10315847;28;20280;-62
2024/04/04 13:15:38;;;;;;;3.17;1.05;;;16.00;92.30;;;;;;10314015;28;20314;-61
2024/04/04 13:20:42;;;;;;;4.00;1.10;;;16.20;91.30;;;;;;10318813;28;20236;-61
2024/04/04 13:25:45;;;;;;;3.03;1.20;;;16.30;91.40;;;;;;10321158;28;20221;-62
2024/04/04 13:30:48;;;;;;;3.83;1.10;;;16.90;91.20;;;;;;10323025;28;20216;-61
2024/04/04 13:35:52;;;;;;;4.22;1.33;;;17.60;90.40;;;;;;10328113;28;20310;-62
2024/04/04 13:40:55;;;;;;;5.70;1.48;;;18.10;90.20;;;;;;10327848;28;20251;-60
2024/04/04 13:45:58;;;;;;;4.55;1.10;;;18.20;88.60;;;;;;10329537;28;20259;-63
2024/04/04 13:51:02;;;;;;;5.18;1.38;;;17.80;87.40;;;;;;10331879;28;20351;-61
2024/04/04 13:56:06;;;;;;;5.28;1.48;;;17.30;87.90;;;;;;10334066;28;20454;-62
2024/04/04 14:01:08;;;;;;;4.30;1.35;;;16.80;88.90;;;;;;10337690;28;20320;-61
2024/04/04 14:06:12;;;;;;;7.35;1.58;;;16.50;89.10;;;;;;10339113;28;20707;-60
2024/04/04 14:11:15;;;;;;;4.80;1.35;;;16.20;90.20;;;;;;10348133;28;21348;-61
2024/04/04 14:16:17;;;;;;;4.25;1.58;;;16.00;90.50;;;;;;10334162;28;20316;-60
2024/04/04 14:21:22;;;;;;;4.63;1.40;;;15.80;91.10;;;;;;10333544;28;20288;-61
2024/04/04 14:26:27;;;;;;;7.50;1.70;;;15.50;91.60;;;;;;10336782;28;20307;-60
2024/04/04 14:31:29;;;;;;;4.30;1.20;;;15.30;92.50;;;;;;10336421;28;20348;-60
2024/04/04 14:36:33;;;;;;;5.72;1.40;;;15.10;93.10;;;;;;10339870;28;20355;-62
2024/04/04 14:41:37;;;;;;;4.47;1.17;;;15.00;93.50;;;;;;10336235;28;20228;-68
2024/04/04 14:46:39;;;;;;;2.38;1.15;;;14.90;93.60;;;;;;10332860;28;20320;-59
2024/04/04 14:51:50;;;;;;;4.03;1.33;;;14.70;93.20;;;;;;10336005;28;21574;-60
2024/04/04 14:56:55;;;;;;;3.40;1.27;;;14.60;93.60;;;;;;10332082;28;20323;-60
2024/04/04 15:01:58;;;;;;;3.67;1.50;;;14.50;93.90;;;;;;10332028;28;20324;-60
2024/04/04 15:07:03;;;;;;;5.25;2.45;;;14.50;93.90;;;;;;10333663;28;20315;-60
2024/04/04 15:12:06;;;;;;;3.97;1.60;;;14.70;94.10;;;;;;10328671;28;20676;-60
2024/04/04 15:17:10;;;;;;;3.95;1.42;;;14.80;94.50;;;;;;10308993;22;20286;-68
2024/04/04 15:22:14;;;;;;;2.97;1.20;;;14.90;94.50;;;;;;10266171;28;20208;-66
2024/04/04 15:27:17;;;;;;;5.43;1.13;;;15.00;94.40;;;;;;10245534;28;20319;-66
2024/04/04 15:32:19;;;;;;;3.40;1.00;;;15.30;94.50;;;;;;10238068;28;20732;-66
2024/04/04 15:37:23;;;;;;;4.68;1.23;;;16.00;93.60;;;;;;10236927;28;20225;-66
2024/04/04 15:42:26;;;;;;;4.38;1.70;;;16.60;93.40;;;;;;10237716;28;20205;-69
2024/04/04 15:47:29;;;;;;;4.03;1.73;;;17.20;92.80;;;;;;10237156;28;20230;-67
2024/04/04 15:52:33;;;;;;;5.75;1.73;;;17.50;92.30;;;;;;10236512;28;20582;-68
2024/04/04 15:57:38;;;;;;;7.68;2.20;;;17.50;92.10;;;;;;10237206;28;20260;-68
2024/04/04 16:02:41;;;;;;;6.47;2.10;;;17.40;92.20;;;;;;10237395;28;21394;-68
2024/04/04 16:07:45;;;;;;;5.40;2.00;;;17.00;92.10;;;;;;10236567;28;20253;-68
2024/04/04 16:12:48;;;;;;;5.40;2.30;;;16.70;92.40;;;;;;10237833;28;20255;-68
2024/04/04 16:17:50;;;;;;;8.80;2.50;;;16.50;92.70;;;;;;10237817;28;20296;-68
2024/04/04 16:22:54;;;;;;;6.75;2.40;;;16.50;93.30;;;;;;10236989;28;20217;-67
2024/04/04 16:27:57;;;;;;;9.98;2.20;;;16.50;93.20;;;;;;10236635;28;20295;-68
2024/04/04 16:33:00;;;;;;;7.07;1.92;;;16.30;93.20;;;;;;10234436;28;20209;-67
2024/04/04 16:38:07;;;;;;;7.55;2.20;;;16.20;93.00;;;;;;10250188;28;20229;-67
2024/04/04 16:43:10;;;;;;;8.30;2.45;;;16.00;93.20;;;;;;10252968;28;20216;-63
2024/04/04 16:48:12;;;;;;;8.10;2.03;;;16.00;93.30;;;;;;10253198;28;20229;-62
2024/04/04 16:53:17;;;;;;;7.13;2.55;;;16.00;93.10;;;;;;10260052;28;21323;-62
2024/04/04 16:58:19;;;;;;;10.27;2.55;;;15.80;93.10;;;;;;10255276;28;20284;-63
2024/04/04 17:03:22;;;;;;;6.43;2.38;;;15.70;93.30;;;;;;10272325;28;20212;-64
2024/04/04 17:08:26;;;;;;;7.95;2.70;;;15.50;93.50;;;;;;10271037;28;20282;-62
2024/04/04 17:13:28;;;;;;;12.05;2.80;;;15.40;93.80;;;;;;10265863;28;20235;-62
2024/04/04 17:18:31;;;;;;;10.30;2.45;;;15.30;93.80;;;;;;10279865;28;20236;-61
2024/04/04 17:23:35;;;;;;;9.32;2.83;;;15.20;94.10;;;;;;10271745;28;20260;-64
2024/04/04 17:28:38;;;;;;;7.13;3.08;;;15.10;94.10;;;;;;10270361;28;20229;-65
2024/04/04 17:33:40;;;;;;;7.75;3.05;;;14.90;94.50;;;;;;10297070;28;20681;-62
2024/04/04 17:38:44;;;;;;;10.30;3.75;;;14.80;95.10;;;;;;10262753;28;21567;-64
2024/04/04 17:43:47;;;;;;;12.02;4.28;;;14.70;95.10;;;;;;10260614;28;20208;-65
2024/04/04 17:48:49;;;;;;;14.77;4.88;;;14.60;95.60;;;;;;10265700;28;20225;-61
2024/04/04 17:53:53;;;;;;;10.82;4.15;;;14.50;95.80;;;;;;10254580;28;20217;-68
2024/04/04 17:58:56;;;;;;;14.68;3.88;;;14.30;96.30;;;;;;10249883;28;20241;-71
2024/04/04 18:03:58;;;;;;;15.25;5.45;;;14.20;95.90;;;;;;10243448;28;20599;-72
2024/04/04 18:09:03;;;;;;;23.77;11.27;;;14.20;96.60;;;;;;10246186;28;20256;-65
2024/04/04 18:14:06;;;;;;;33.78;15.65;;;14.10;96.50;;;;;;10270616;28;20262;-65
2024/04/04 18:19:09;;;;;;;25.15;15.63;;;14.10;97.10;;;;;;10258469;28;20233;-63
2024/04/04 18:24:13;;;;;;;18.73;9.95;;;14.10;97.00;;;;;;10258823;28;20205;-64
2024/04/04 18:29:16;;;;;;;15.85;7.38;;;14.10;96.80;;;;;;10254590;28;20225;-62
2024/04/04 18:34:19;;;;;;;12.65;4.68;;;14.00;96.90;;;;;;10252839;28;21763;-62
2024/04/04 18:39:23;;;;;;;9.80;3.70;;;14.00;97.10;;;;;;10254273;28;20802;-62
2024/04/04 18:44:25;;;;;;;10.00;3.53;;;14.00;97.10;;;;;;10257992;28;20278;-63
2024/04/04 18:49:28;;;;;;;14.13;4.28;;;14.00;97.20;;;;;;10257832;28;20202;-64
2024/04/04 18:54:32;;;;;;;18.90;6.07;;;13.90;97.00;;;;;;10261324;28;20213;-64
2024/04/04 18:59:35;;;;;;;18.55;6.65;;;14.00;97.10;;;;;;10262907;28;20214;-63
2024/04/04 19:04:37;;;;;;;19.02;6.80;;;14.00;97.00;;;;;;10268089;28;20217;-64
2024/04/04 19:09:41;;;;;;;19.93;7.87;;;13.90;97.60;;;;;;10250364;28;20472;-59
2024/04/04 19:14:47;;;;;;;17.92;5.97;;;14.00;98.40;;;;;;10243021;28;20260;-61
2024/04/04 19:19:50;;;;;;;18.45;6.68;;;14.00;98.00;;;;;;10243678;28;20295;-60
2024/04/04 19:24:54;;;;;;;16.55;6.53;;;13.90;97.70;;;;;;10244357;28;20229;-60
2024/04/04 19:29:57;;;;;;;16.80;6.97;;;14.00;97.80;;;;;;10243747;28;20213;-62
2024/04/04 19:34:59;;;;;;;13.43;6.65;;;13.90;97.80;;;;;;10241201;28;20233;-61
2024/04/04 19:40:04;;;;;;;15.95;5.10;;;13.90;98.00;;;;;;10241214;28;20206;-61
2024/04/04 19:45:08;;;;;;;14.27;5.05;;;13.80;97.80;;;;;;10239305;28;20592;-61
2024/04/04 19:50:11;;;;;;;15.00;5.32;;;13.80;98.10;;;;;;10240486;28;20218;-61
2024/04/04 19:55:15;;;;;;;15.70;5.47;;;13.80;97.80;;;;;;10239106;28;20264;-61
2024/04/04 20:00:18;;;;;;;17.48;4.32;;;13.70;97.70;;;;;;10237614;28;20218;-61
2024/04/04 20:05:20;;;;;;;17.10;4.28;;;13.80;97.60;;;;;;10239881;28;20218;-64
2024/04/04 20:10:24;;;;;;;12.82;3.70;;;13.80;97.70;;;;;;10238930;28;20217;-64
2024/04/04 20:15:27;;;;;;;17.60;4.30;;;13.70;97.40;;;;;;10238060;28;20837;-63
2024/04/04 20:20:29;;;;;;;19.02;4.40;;;13.70;97.40;;;;;;10238280;28;20213;-65
2024/04/04 20:25:34;;;;;;;20.70;4.78;;;13.70;97.90;;;;;;10238234;28;20233;-61
2024/04/04 20:30:37;;;;;;;16.23;3.70;;;13.60;97.60;;;;;;10243707;28;20221;-62
2024/04/04 20:35:41;;;;;;;19.55;4.20;;;13.60;97.60;;;;;;10241913;28;20233;-61
2024/04/04 20:40:45;;;;;;;17.27;4.80;;;13.60;97.30;;;;;;10235658;28;21446;-62
2024/04/04 20:45:49;;;;;;;20.17;4.28;;;13.50;97.00;;;;;;10236732;28;21291;-61
2024/04/04 20:50:51;;;;;;;15.32;4.20;;;13.50;97.40;;;;;;10237677;28;20317;-62
2024/04/04 20:55:55;;;;;;;19.52;4.00;;;13.40;97.10;;;;;;10236179;28;20241;-61
2024/04/04 21:00:58;;;;;;;15.80;3.55;;;13.40;97.00;;;;;;10236750;28;20217;-61
2024/04/04 21:06:00;;;;;;;16.02;3.40;;;13.30;96.60;;;;;;10236933;28;20233;-62
2024/04/04 21:11:04;;;;;;;11.35;3.45;;;13.30;96.70;;;;;;10239298;28;20217;-63
2024/04/04 21:16:07;;;;;;;12.50;4.28;;;13.20;96.50;;;;;;10235869;28;20307;-62
2024/04/04 21:21:10;;;;;;;27.65;11.65;;;13.20;96.40;;;;;;10285123;23;20234;-63
2024/04/04 21:26:14;;;;;;;28.67;11.02;;;13.10;96.60;;;;;;10270118;28;20205;-63
2024/04/04 21:31:17;;;;;;;24.88;9.02;;;13.10;96.40;;;;;;10281164;28;20290;-61
2024/04/04 21:36:20;;;;;;;19.40;6.63;;;13.10;96.20;;;;;;10284740;28;20259;-63
2024/04/04 21:41:24;;;;;;;18.77;5.70;;;13.00;96.50;;;;;;10284601;28;20232;-65
2024/04/04 21:46:27;;;;;;;20.35;7.28;;;13.00;97.00;;;;;;10284699;28;20205;-63
2024/04/04 21:51:30;;;;;;;20.50;9.25;;;13.00;96.70;;;;;;10280770;28;20236;-61
2024/04/04 21:56:35;;;;;;;18.60;5.35;;;13.00;96.60;;;;;;10288113;28;20309;-60
2024/04/04 22:01:38;;;;;;;14.95;3.50;;;13.00;96.80;;;;;;10287116;28;20310;-62
2024/04/04 22:06:40;;;;;;;20.13;3.95;;;13.00;96.60;;;;;;10290877;28;20228;-63
2024/04/04 22:11:45;;;;;;;16.80;3.92;;;12.90;96.60;;;;;;10287885;28;20302;-62
2024/04/04 22:16:48;;;;;;;14.48;3.08;;;12.90;96.40;;;;;;10282617;28;20233;-62
2024/04/04 22:21:51;;;;;;;15.65;3.03;;;12.90;96.30;;;;;;10273259;28;20294;-63
2024/04/04 22:26:55;;;;;;;14.52;3.88;;;12.90;96.00;;;;;;10271991;28;20200;-63
2024/04/04 22:31:58;;;;;;;14.45;3.38;;;12.80;96.30;;;;;;10270839;28;20232;-60
2024/04/04 22:37:01;;;;;;;14.77;3.78;;;12.80;96.00;;;;;;10270958;28;20814;-64
2024/04/04 22:42:05;;;;;;;13.07;3.15;;;12.80;96.20;;;;;;10270306;28;20237;-63
2024/04/04 22:47:08;;;;;;;14.52;3.45;;;12.80;96.10;;;;;;10267572;28;20251;-63
2024/04/04 22:52:11;;;;;;;14.63;3.35;;;12.80;95.80;;;;;;10266621;28;20216;-63
2024/04/04 22:57:15;;;;;;;14.98;3.70;;;12.80;95.90;;;;;;10266025;28;20221;-63
2024/04/04 23:02:17;;;;;;;16.98;3.70;;;12.80;95.70;;;;;;10264801;28;20262;-64
2024/04/04 23:07:20;;;;;;;12.80;3.30;;;12.80;95.80;;;;;;10265097;28;20236;-62
2024/04/04 23:12:25;;;;;;;15.20;3.42;;;12.80;95.80;;;;;;10263848;28;20217;-63
2024/04/04 23:17:27;;;;;;;17.42;3.80;;;12.80;95.50;;;;;;10266434;28;20233;-63
2024/04/04 23:22:30;;;;;;;17.52;3.83;;;12.80;95.70;;;;;;10265868;28;21376;-62
2024/04/04 23:27:34;;;;;;;18.05;3.78;;;12.90;96.10;;;;;;10264984;28;20224;-62
2024/04/04 23:32:36;;;;;;;18.02;3.40;;;12.90;95.80;;;;;;10265406;28;20212;-62
2024/04/04 23:37:39;;;;;;;16.88;3.75;;;12.90;95.90;;;;;;10265426;28;21468;-61
2024/04/04 23:42:43;;;;;;;19.63;4.03;;;13.00;95.70;;;;;;10264723;28;20197;-61
2024/04/04 23:47:47;;;;;;;11.57;3.28;;;13.00;95.90;;;;;;10267624;28;20359;-63
2024/04/04 23:52:49;;;;;;;12.85;3.03;;;13.00;96.30;;;;;;10264819;28;20217;-63
2024/04/04 23:57:53;;;;;;;14.38;3.90;;;13.10;96.00;;;;;;10263440;28;20539;-62
